createdAt,value
2022-11-20T00:03:08.173Z,12.82
2022-11-20T00:08:10.342Z,14.87
2022-11-20T00:13:12.435Z,13.25
2022-11-20T00:18:15.076Z,13.77
2022-11-20T00:28:19.061Z,13.63
2022-11-20T00:33:21.082Z,13.10
2022-11-20T00:38:23.082Z,12.90
2022-11-20T00:43:25.709Z,14.90
2022-11-20T00:53:30.704Z,14.60
2022-11-20T00:58:35.841Z,13.88
2022-11-20T01:03:41.021Z,15.05
2022-11-20T01:08:44.463Z,14.23
2022-11-20T01:13:48.130Z,15.55
2022-11-20T01:18:52.365Z,13.97
2022-11-20T01:23:54.757Z,12.50
2022-11-20T01:28:57.810Z,14.50
2022-11-20T01:34:06.197Z,13.93
2022-11-20T01:39:29.170Z,13.43
2022-11-20T01:44:50.190Z,14.87
2022-11-20T01:50:07.454Z,14.17
2022-11-20T01:55:35.054Z,13.00
2022-11-20T02:00:37.226Z,12.90
2022-11-20T02:06:14.032Z,14.48
2022-11-20T02:11:16.120Z,14.43
2022-11-20T02:16:23.504Z,14.50
2022-11-20T02:21:37.485Z,14.90
2022-11-20T02:26:46.144Z,13.57
2022-11-20T02:31:48.477Z,13.33
2022-11-20T02:36:52.875Z,13.40
2022-11-20T02:41:56.749Z,13.97
2022-11-20T02:47:00.120Z,11.73
2022-11-20T02:52:02.183Z,13.03
2022-11-20T02:57:04.232Z,13.38
2022-11-20T03:02:06.331Z,13.00
2022-11-20T03:07:09.831Z,13.23
2022-11-20T03:12:12.335Z,11.80
2022-11-20T03:17:14.377Z,13.18
2022-11-20T03:22:16.462Z,14.75
2022-11-20T03:27:18.609Z,14.55
2022-11-20T03:32:21.052Z,14.25
2022-11-20T03:37:23.478Z,14.30
2022-11-20T03:42:44.505Z,15.25
2022-11-20T03:47:47.035Z,12.37
2022-11-20T03:52:49.491Z,13.15
2022-11-20T03:57:51.610Z,13.68
2022-11-20T04:02:53.723Z,13.73
2022-11-20T04:07:55.734Z,13.20
2022-11-20T04:12:57.794Z,12.50
2022-11-20T04:17:59.840Z,13.30
2022-11-20T04:23:01.952Z,14.07
2022-11-20T04:28:04.180Z,12.37
2022-11-20T04:33:06.213Z,12.82
2022-11-20T04:38:08.419Z,13.15
2022-11-20T04:43:10.891Z,13.45
2022-11-20T04:48:12.928Z,12.10
2022-11-20T04:53:15.091Z,13.35
2022-11-20T04:58:17.483Z,12.23
2022-11-20T05:03:19.588Z,12.88
2022-11-20T05:08:21.705Z,13.18
2022-11-20T05:13:23.790Z,12.88
2022-11-20T05:18:25.979Z,12.57
2022-11-20T05:23:29.871Z,12.25
2022-11-20T05:28:33.017Z,11.40
2022-11-20T05:33:36.779Z,11.23
2022-11-20T05:38:39.188Z,12.50
2022-11-20T05:43:43.558Z,11.98
2022-11-20T05:48:46.379Z,11.60
2022-11-20T05:53:48.965Z,12.10
2022-11-20T06:03:54.963Z,12.15
2022-11-20T06:08:59.766Z,11.20
2022-11-20T06:14:02.209Z,11.10
2022-11-20T06:19:04.274Z,11.55
2022-11-20T06:24:06.717Z,11.93
2022-11-20T06:29:08.799Z,11.10
2022-11-20T06:34:10.929Z,11.65
2022-11-20T06:39:13.011Z,10.38
2022-11-20T06:44:15.109Z,10.40
2022-11-20T06:49:17.197Z,10.77
2022-11-20T06:54:19.255Z,10.60
2022-11-20T06:59:21.505Z,12.02
2022-11-20T07:04:23.844Z,10.43
2022-11-20T07:09:26.039Z,10.75
2022-11-20T07:14:28.199Z,11.45
2022-11-20T07:19:30.616Z,10.35
2022-11-20T07:24:32.636Z,10.57
2022-11-20T07:29:35.044Z,11.32
2022-11-20T07:34:37.112Z,12.23
2022-11-20T07:39:39.553Z,11.88
2022-11-20T07:44:41.979Z,9.38
2022-11-20T07:49:44.389Z,10.40
2022-11-20T07:54:46.783Z,11.27
2022-11-20T07:59:48.769Z,12.18
2022-11-20T08:04:50.946Z,10.25
2022-11-20T08:09:54.055Z,11.48
2022-11-20T08:14:57.577Z,13.83
2022-11-20T08:19:59.649Z,11.45
2022-11-20T08:25:02.334Z,11.73
2022-11-20T08:30:05.459Z,11.65
2022-11-20T08:35:07.850Z,13.90
2022-11-20T08:40:14.761Z,12.50
2022-11-20T08:45:20.786Z,13.40
2022-11-20T08:50:22.828Z,11.35
2022-11-20T08:55:24.849Z,15.85
2022-11-20T09:00:26.956Z,13.48
2022-11-20T09:05:29.996Z,11.57
2022-11-20T09:10:33.037Z,12.30
2022-11-20T09:15:35.184Z,12.05
2022-11-20T09:20:37.801Z,11.50
2022-11-20T09:25:40.003Z,12.55
2022-11-20T09:30:42.476Z,12.13
2022-11-20T09:35:45.241Z,13.10
2022-11-20T09:46:38.560Z,13.60
2022-11-20T09:52:07.048Z,13.35
2022-11-20T09:57:14.483Z,14.67
2022-11-20T10:02:19.227Z,15.50
2022-11-20T10:07:33.001Z,14.50
2022-11-20T10:12:58.530Z,15.43
2022-11-20T10:18:10.226Z,16.97
2022-11-20T10:23:50.962Z,16.40
2022-11-20T10:29:09.107Z,14.50
2022-11-20T10:34:40.463Z,14.77
2022-11-20T10:40:07.007Z,14.80
2022-11-20T10:45:23.104Z,17.40
2022-11-20T10:50:25.600Z,17.10
2022-11-20T10:55:49.141Z,19.58
2022-11-20T11:00:51.371Z,17.62
2022-11-20T11:06:17.007Z,16.75
2022-11-20T11:11:28.659Z,16.25
2022-11-20T11:16:30.734Z,15.55
2022-11-20T11:21:32.925Z,15.50
2022-11-20T11:26:34.968Z,23.23
2022-11-20T11:31:37.010Z,21.67
2022-11-20T11:36:39.479Z,18.20
2022-11-20T11:41:42.314Z,16.40
2022-11-20T11:52:17.182Z,19.80
2022-11-20T11:57:30.617Z,82.23
2022-11-20T12:02:45.241Z,17.63
2022-11-20T12:07:50.468Z,10.60
2022-11-20T12:13:09.111Z,8.85
2022-11-20T12:18:16.893Z,8.73
2022-11-20T12:23:40.437Z,3.93
2022-11-20T12:29:24.269Z,2.50
2022-11-20T12:34:51.372Z,1.87
2022-11-20T12:39:57.652Z,2.00
2022-11-20T12:45:33.744Z,1.50
2022-11-20T12:51:13.370Z,1.70
2022-11-20T12:56:32.880Z,1.70
2022-11-20T13:01:59.631Z,1.80
2022-11-20T13:07:09.179Z,2.30
2022-11-20T13:12:18.856Z,1.65
2022-11-20T13:17:29.770Z,2.15
2022-11-20T13:22:49.782Z,1.95
2022-11-20T13:27:52.179Z,1.55
2022-11-20T13:32:57.965Z,1.87
2022-11-20T13:38:06.515Z,1.85
2022-11-20T13:43:27.618Z,1.07
2022-11-20T13:48:42.195Z,1.25
2022-11-20T13:53:50.063Z,2.13
2022-11-20T13:59:14.744Z,1.27
2022-11-20T14:04:24.924Z,0.97
2022-11-20T14:09:33.438Z,1.80
2022-11-20T14:14:37.251Z,1.30
2022-11-20T14:19:42.254Z,1.40
2022-11-20T14:24:44.334Z,1.20
2022-11-20T14:29:49.989Z,1.15
2022-11-20T14:34:52.214Z,0.95
2022-11-20T14:39:56.830Z,0.90
2022-11-20T14:45:00.746Z,0.95
2022-11-20T14:50:07.381Z,5.05
2022-11-20T14:55:25.656Z,3.55
2022-11-20T15:00:29.218Z,3.10
2022-11-20T15:05:49.266Z,1.10
2022-11-20T15:10:52.660Z,1.55
2022-11-20T15:15:56.999Z,1.60
2022-11-20T15:21:04.157Z,2.10
2022-11-20T15:26:07.456Z,2.20
2022-11-20T15:31:18.087Z,3.50
2022-11-20T15:36:20.123Z,3.10
2022-11-20T15:41:22.136Z,3.67
2022-11-20T15:46:28.533Z,3.90
2022-11-20T15:51:34.219Z,3.53
2022-11-20T15:56:36.375Z,3.50
2022-11-20T16:01:38.710Z,3.10
2022-11-20T16:06:41.055Z,2.17
2022-11-20T16:11:43.156Z,1.90
2022-11-20T16:16:45.298Z,3.28
2022-11-20T16:21:47.486Z,3.83
2022-11-20T16:26:49.622Z,1.67
2022-11-20T16:31:51.800Z,1.30
2022-11-20T16:36:53.924Z,1.70
2022-11-20T16:41:56.108Z,1.08
2022-11-20T16:46:58.459Z,1.75
2022-11-20T16:52:00.584Z,2.65
2022-11-20T16:57:03.132Z,10.80
2022-11-20T17:02:05.227Z,10.27
2022-11-20T17:07:08.288Z,32.47
2022-11-20T17:12:10.668Z,38.15
2022-11-20T17:17:12.808Z,36.72
2022-11-20T17:22:14.821Z,42.88
2022-11-20T17:27:17.052Z,14.38
2022-11-20T17:32:19.107Z,4.15
2022-11-20T17:37:21.167Z,5.45
2022-11-20T17:42:29.809Z,3.40
2022-11-20T17:47:32.032Z,3.90
2022-11-20T17:52:34.212Z,6.37
2022-11-20T17:57:56.582Z,4.65
2022-11-20T18:02:59.058Z,4.40
2022-11-20T18:08:01.190Z,2.72
2022-11-20T18:13:03.450Z,2.08
2022-11-20T18:18:05.634Z,3.35
2022-11-20T18:23:07.820Z,3.85
2022-11-20T18:28:09.951Z,2.08
2022-11-20T18:33:11.985Z,1.80
2022-11-20T18:38:14.132Z,2.08
2022-11-20T18:43:35.031Z,1.90
2022-11-20T18:48:38.810Z,2.00
2022-11-20T18:53:45.862Z,3.00
2022-11-20T18:58:50.024Z,1.40
2022-11-20T19:03:52.205Z,1.70
2022-11-20T19:08:54.250Z,1.75
2022-11-20T19:13:56.569Z,1.73
2022-11-20T19:19:06.640Z,1.27
2022-11-20T19:24:09.188Z,1.45
2022-11-20T19:29:15.807Z,1.30
2022-11-20T19:34:18.331Z,0.55
2022-11-20T19:39:20.454Z,0.82
2022-11-20T19:44:22.584Z,1.00
2022-11-20T19:49:25.033Z,0.40
2022-11-20T19:54:27.547Z,0.70
2022-11-20T19:59:29.579Z,1.12
2022-11-20T20:04:31.761Z,1.37
2022-11-20T20:09:34.187Z,1.08
2022-11-20T20:14:36.271Z,1.05
2022-11-20T20:19:38.306Z,1.20
2022-11-20T20:24:40.343Z,4.22
2022-11-20T20:29:42.431Z,2.90
2022-11-20T20:34:44.522Z,1.17
2022-11-20T20:39:46.619Z,2.00
2022-11-20T20:45:07.030Z,1.40
2022-11-20T20:50:11.588Z,1.00
2022-11-20T20:55:14.358Z,1.60
2022-11-20T21:00:16.705Z,2.30
2022-11-20T21:05:18.876Z,1.50
2022-11-20T21:10:23.855Z,1.15
2022-11-20T21:15:26.321Z,0.55
2022-11-20T21:20:47.196Z,1.15
2022-11-20T21:25:49.225Z,1.43
2022-11-20T21:30:51.344Z,2.42
2022-11-20T21:35:53.426Z,1.25
2022-11-20T21:40:58.536Z,1.42
2022-11-20T21:46:08.881Z,1.77
2022-11-20T21:51:22.481Z,1.40
2022-11-20T21:56:26.100Z,0.95
2022-11-20T22:01:30.611Z,1.70
2022-11-20T22:06:34.243Z,1.00
2022-11-20T22:11:36.718Z,2.00
2022-11-20T22:16:39.593Z,1.10
2022-11-20T22:21:42.036Z,2.70
2022-11-20T22:26:44.432Z,2.45
2022-11-20T22:31:46.759Z,2.03
2022-11-20T22:36:48.891Z,1.70
2022-11-20T22:41:50.996Z,2.33
2022-11-20T22:46:53.032Z,2.70
2022-11-20T22:51:55.094Z,1.73
2022-11-20T22:56:57.854Z,1.60
2022-11-20T23:07:01.848Z,2.95
2022-11-20T23:12:04.105Z,2.47
2022-11-20T23:17:06.153Z,2.78
2022-11-20T23:22:08.578Z,1.70
2022-11-20T23:27:10.557Z,1.98
2022-11-20T23:32:12.570Z,2.27
2022-11-20T23:37:14.594Z,1.90
2022-11-20T23:42:16.686Z,2.05
2022-11-20T23:47:18.724Z,2.53
2022-11-20T23:52:21.982Z,1.52
2022-11-20T23:57:24.009Z,2.50
